Hatsu Elite — VSJG7 — position and weather

sailwx.info

Track history (hours):
 
Tides and Currents Weather Stations Pressure Air Temp Water Temp Dewpoint Dewpoint Depression Visibility Wind Speed Wind Dir Waves Ship Positions

Hatsu Elite

Last reported at 2018-Feb-19 12:00 UTC. Time now 2018-Feb-21 06:45 UTC.
Position N 40°54' W 170°06'.

Type: Ship (hazmat cat D). MMSI: 235554000.

Wind from 170 at 30 knots

Barometer 1025.0 mb
Air temperature 12.0 ° C
Visibility: greater than 5.4 NM
Dewpoint 7.9 ° C

Date/timePositionNaut miles runAvg speedWind from/ knotsBaromVisibWave heightAir tempDewpointWater temp
2018-Feb-19 12:00N 40°54' W 170°06'23819.8 170 / 301025.0 5.4 12.0 7.9
2018-Feb-19 00:00N 40°30' W 175°18'23619.7 180 / 401012.0 1.1 14.010.2
2018-Feb-18 12:00N 39°54' E 179°36'23419.5 170 / 40999.0 5.4
2018-Feb-18 00:00N 39°18' E 174°36'74020.5 160 / 43998.0 13.0 9.113.0
2018-Feb-16 12:00N 37°18' E 159°06'12220.3 300 / 301009.0 5.4 8.0 0.5
2018-Feb-16 06:00N 36°54' E 156°36'13121.8 290 / 201009.010.8 10.0 3.1
2018-Feb-16 00:00N 36°36' E 153°54'11719.5 300 / 321008.0 5.4 10.0-3.5
2018-Feb-15 18:00N 36°18' E 151°30'13823.0 340 / 281011.010.8 8.0-2.9
2018-Feb-15 12:00N 35°54' E 148°42'12921.5 010 / 331010.0 5.4 10.0 7.918.0
2018-Feb-15 06:00N 35°30' E 146°06'28722.5 350 / 231011.0 5.4 10.0 5.6
2018-Feb-14 17:16N 34°48' E 140°19'722.9
2018-Feb-14 16:58N 34°46' E 140°11'1422.8
2018-Feb-14 16:22N 34°44' E 139°54'821.6
2018-Feb-14 15:58N 34°41' E 139°45'1223.4
2018-Feb-14 15:29N 34°38' E 139°31'1124.0
2018-Feb-14 15:00N 34°35' E 139°18'1223.7
2018-Feb-14 14:30N 34°29' E 139°05'1122.9
2018-Feb-14 14:00N 34°24' E 138°53'1223.0
2018-Feb-14 13:29N 34°19' E 138°40'1122.7
2018-Feb-14 13:00N 34°14' E 138°28'1422.7
2018-Feb-14 12:22N 34°07' E 138°13'921.9
2018-Feb-14 11:58N 34°03' E 138°03'102221.8
2018-Feb-12 12:59N 25°27' E 121°07'1120.4
2018-Feb-12 12:27N 25°21' E 120°57'1020.2
2018-Feb-12 11:56N 25°14' E 120°48'1820.0
2018-Feb-12 11:03N 25°04' E 120°32'420.0
2018-Feb-12 10:52N 25°02' E 120°29'719.8
2018-Feb-12 10:30N 24°58' E 120°22'11519.3
2018-Feb-12 04:32N 23°52' E 118°38'218.3
2018-Feb-12 04:24N 23°51' E 118°36'918.6
2018-Feb-12 03:56N 23°46' E 118°28'818.8
2018-Feb-12 03:30N 23°41' E 118°21'919.0
2018-Feb-12 03:00N 23°36' E 118°12'1219.0
2018-Feb-12 02:21N 23°30' E 118°01'719.1
2018-Feb-12 01:59N 23°26' E 117°54'919.3
2018-Feb-12 01:30N 23°21' E 117°46'1019.4
2018-Feb-12 01:00N 23°16' E 117°37'1019.7
2018-Feb-12 00:30N 23°10' E 117°28'1020.0
2018-Feb-12 00:00N 23°05' E 117°19'171 4.3
2018-Feb-10 08:15N 22°34' E 114°16'1 1.5
2018-Feb-10 07:50N 22°34' E 114°17'712.0
2018-Feb-10 07:16N 22°32' E 114°24'  
Track history (hours):
 
Tides and Currents Weather Stations Pressure Air Temp Water Temp Dewpoint Dewpoint Depression Visibility Wind Speed Wind Dir Waves Ship Positions

Hatsu Elite

Last reported at 2018-Feb-19 12:00 UTC. Time now 2018-Feb-21 06:45 UTC.
Position N 40°54' W 170°06'.

Type: Ship (hazmat cat D). MMSI: 235554000.

Wind from 170 at 30 knots

Barometer 1025.0 mb
Air temperature 12.0 ° C
Visibility: greater than 5.4 NM
Dewpoint 7.9 ° C

Date/timePositionNaut miles runAvg speedWind from/ knotsBaromVisibWave heightAir tempDewpointWater temp
2018-Feb-19 12:00N 40°54' W 170°06'23819.8 170 / 301025.0 5.4 12.0 7.9
2018-Feb-19 00:00N 40°30' W 175°18'23619.7 180 / 401012.0 1.1 14.010.2
2018-Feb-18 12:00N 39°54' E 179°36'23419.5 170 / 40999.0 5.4
2018-Feb-18 00:00N 39°18' E 174°36'74020.5 160 / 43998.0 13.0 9.113.0
2018-Feb-16 12:00N 37°18' E 159°06'12220.3 300 / 301009.0 5.4 8.0 0.5
2018-Feb-16 06:00N 36°54' E 156°36'13121.8 290 / 201009.010.8 10.0 3.1
2018-Feb-16 00:00N 36°36' E 153°54'11719.5 300 / 321008.0 5.4 10.0-3.5
2018-Feb-15 18:00N 36°18' E 151°30'13823.0 340 / 281011.010.8 8.0-2.9
2018-Feb-15 12:00N 35°54' E 148°42'12921.5 010 / 331010.0 5.4 10.0 7.918.0
2018-Feb-15 06:00N 35°30' E 146°06'28722.5 350 / 231011.0 5.4 10.0 5.6
2018-Feb-14 17:16N 34°48' E 140°19'722.9
2018-Feb-14 16:58N 34°46' E 140°11'1422.8
2018-Feb-14 16:22N 34°44' E 139°54'821.6
2018-Feb-14 15:58N 34°41' E 139°45'1223.4
2018-Feb-14 15:29N 34°38' E 139°31'1124.0
2018-Feb-14 15:00N 34°35' E 139°18'1223.7
2018-Feb-14 14:30N 34°29' E 139°05'1122.9
2018-Feb-14 14:00N 34°24' E 138°53'1223.0
2018-Feb-14 13:29N 34°19' E 138°40'1122.7
2018-Feb-14 13:00N 34°14' E 138°28'1422.7
2018-Feb-14 12:22N 34°07' E 138°13'921.9
2018-Feb-14 11:58N 34°03' E 138°03'102221.8
2018-Feb-12 12:59N 25°27' E 121°07'1120.4
2018-Feb-12 12:27N 25°21' E 120°57'1020.2
2018-Feb-12 11:56N 25°14' E 120°48'1820.0
2018-Feb-12 11:03N 25°04' E 120°32'420.0
2018-Feb-12 10:52N 25°02' E 120°29'719.8
2018-Feb-12 10:30N 24°58' E 120°22'11519.3
2018-Feb-12 04:32N 23°52' E 118°38'218.3
2018-Feb-12 04:24N 23°51' E 118°36'918.6
2018-Feb-12 03:56N 23°46' E 118°28'818.8
2018-Feb-12 03:30N 23°41' E 118°21'919.0
2018-Feb-12 03:00N 23°36' E 118°12'1219.0
2018-Feb-12 02:21N 23°30' E 118°01'719.1
2018-Feb-12 01:59N 23°26' E 117°54'919.3
2018-Feb-12 01:30N 23°21' E 117°46'1019.4
2018-Feb-12 01:00N 23°16' E 117°37'1019.7
2018-Feb-12 00:30N 23°10' E 117°28'1020.0
2018-Feb-12 00:00N 23°05' E 117°19'171 4.3
2018-Feb-10 08:15N 22°34' E 114°16'1 1.5
2018-Feb-10 07:50N 22°34' E 114°17'712.0
2018-Feb-10 07:16N 22°32' E 114°24'  

Dump ship's entire track history